Jamboree, Kentucky
Current Conditions -  °F | °C
As of 6:55 AM on Sunday 21 Dec 2014 (Local Time) from KPBX Reporting Station
Clear Clear  
Wind Chill: 26°   Ceiling: Unl
Heat Index: 26°   Visibility: 10mi
Dew Point: 24°   Wind: 3mph
Humidity: 92%   Direction: 20°NNE
Pressure: 30.26"   Gusts: NA
Location:  37.4798°N, 82.1599°W
Report Text: KPBX 211155Z AUTO 02003KT 10SM CLR M03/M04 A3026 RMK AO2 T10311042 11010 21035
Loading
Personal Weather Stations






























Interactive Weather Map New forecast layout! Learn more

10-Day Weather Forecast

Advertisements
Track Severe Weather on mobile